sensor_id;sensor_type;location;lat;lon;timestamp;P1;durP1;ratioP1;P2;durP2;ratioP2
11037;SDS011;5572;49.540;11.932;2023-02-01T00:02:07;19.58;;;17.85;;
11037;SDS011;5572;49.540;11.932;2023-02-01T00:04:34;17.88;;;16.13;;
11037;SDS011;5572;49.540;11.932;2023-02-01T00:07:01;19.40;;;17.40;;
11037;SDS011;5572;49.540;11.932;2023-02-01T00:09:28;17.15;;;15.45;;
11037;SDS011;5572;49.540;11.932;2023-02-01T00:11:54;17.38;;;15.60;;
11037;SDS011;5572;49.540;11.932;2023-02-01T00:14:24;16.63;;;15.02;;
11037;SDS011;5572;49.540;11.932;2023-02-01T00:16:51;17.73;;;16.23;;
11037;SDS011;5572;49.540;11.932;2023-02-01T00:19:19;19.58;;;17.75;;
11037;SDS011;5572;49.540;11.932;2023-02-01T00:21:45;16.95;;;15.50;;
11037;SDS011;5572;49.540;11.932;2023-02-01T00:24:12;15.98;;;14.50;;
11037;SDS011;5572;49.540;11.932;2023-02-01T00:26:40;16.70;;;15.25;;
11037;SDS011;5572;49.540;11.932;2023-02-01T00:29:09;17.17;;;15.60;;
11037;SDS011;5572;49.540;11.932;2023-02-01T00:31:37;17.95;;;16.08;;
11037;SDS011;5572;49.540;11.932;2023-02-01T00:34:04;17.98;;;16.13;;
11037;SDS011;5572;49.540;11.932;2023-02-01T00:36:33;18.05;;;16.33;;
11037;SDS011;5572;49.540;11.932;2023-02-01T00:38:59;16.67;;;15.18;;
11037;SDS011;5572;49.540;11.932;2023-02-01T00:41:26;18.45;;;16.60;;
11037;SDS011;5572;49.540;11.932;2023-02-01T00:43:53;16.08;;;14.52;;
11037;SDS011;5572;49.540;11.932;2023-02-01T00:46:20;15.77;;;14.30;;
11037;SDS011;5572;49.540;11.932;2023-02-01T00:48:47;19.27;;;17.02;;
11037;SDS011;5572;49.540;11.932;2023-02-01T00:51:15;18.15;;;16.42;;
11037;SDS011;5572;49.540;11.932;2023-02-01T00:53:44;15.65;;;14.18;;
11037;SDS011;5572;49.540;11.932;2023-02-01T00:56:11;17.02;;;15.48;;
11037;SDS011;5572;49.540;11.932;2023-02-01T00:58:38;17.00;;;15.38;;
11037;SDS011;5572;49.540;11.932;2023-02-01T01:01:07;17.38;;;15.75;;
11037;SDS011;5572;49.540;11.932;2023-02-01T01:03:36;14.85;;;13.52;;
11037;SDS011;5572;49.540;11.932;2023-02-01T01:06:05;16.95;;;15.25;;
11037;SDS011;5572;49.540;11.932;2023-02-01T01:08:33;15.48;;;14.10;;
11037;SDS011;5572;49.540;11.932;2023-02-01T01:11:04;15.38;;;13.98;;
11037;SDS011;5572;49.540;11.932;2023-02-01T01:13:32;17.65;;;16.00;;
11037;SDS011;5572;49.540;11.932;2023-02-01T01:16:00;17.63;;;15.88;;
11037;SDS011;5572;49.540;11.932;2023-02-01T01:18:27;15.52;;;14.07;;
11037;SDS011;5572;49.540;11.932;2023-02-01T01:20:54;15.82;;;14.38;;
11037;SDS011;5572;49.540;11.932;2023-02-01T01:23:21;18.42;;;16.73;;
11037;SDS011;5572;49.540;11.932;2023-02-01T01:25:48;17.05;;;15.50;;
11037;SDS011;5572;49.540;11.932;2023-02-01T01:28:16;17.50;;;15.90;;
11037;SDS011;5572;49.540;11.932;2023-02-01T01:30:43;18.10;;;16.35;;
11037;SDS011;5572;49.540;11.932;2023-02-01T01:33:09;17.92;;;16.25;;
11037;SDS011;5572;49.540;11.932;2023-02-01T01:35:36;21.73;;;19.45;;
11037;SDS011;5572;49.540;11.932;2023-02-01T01:38:03;24.35;;;18.50;;
11037;SDS011;5572;49.540;11.932;2023-02-01T01:40:30;20.73;;;18.85;;
11037;SDS011;5572;49.540;11.932;2023-02-01T01:42:57;24.30;;;19.17;;
11037;SDS011;5572;49.540;11.932;2023-02-01T01:45:26;15.13;;;13.77;;
11037;SDS011;5572;49.540;11.932;2023-02-01T01:47:54;15.02;;;13.65;;
11037;SDS011;5572;49.540;11.932;2023-02-01T01:50:24;17.42;;;15.88;;
11037;SDS011;5572;49.540;11.932;2023-02-01T01:52:54;17.60;;;15.90;;
11037;SDS011;5572;49.540;11.932;2023-02-01T01:55:25;17.45;;;15.82;;
11037;SDS011;5572;49.540;11.932;2023-02-01T01:57:57;17.08;;;15.60;;
11037;SDS011;5572;49.540;11.932;2023-02-01T02:00:29;17.38;;;15.90;;
11037;SDS011;5572;49.540;11.932;2023-02-01T02:02:57;16.65;;;15.23;;
11037;SDS011;5572;49.540;11.932;2023-02-01T02:05:28;15.45;;;14.07;;
11037;SDS011;5572;49.540;11.932;2023-02-01T02:07:59;17.65;;;16.00;;
11037;SDS011;5572;49.540;11.932;2023-02-01T02:10:27;19.20;;;17.33;;
11037;SDS011;5572;49.540;11.932;2023-02-01T02:13:08;17.85;;;16.15;;
11037;SDS011;5572;49.540;11.932;2023-02-01T02:15:37;19.27;;;17.05;;
11037;SDS011;5572;49.540;11.932;2023-02-01T02:18:10;19.13;;;17.33;;
11037;SDS011;5572;49.540;11.932;2023-02-01T02:20:52;17.13;;;15.43;;
11037;SDS011;5572;49.540;11.932;2023-02-01T02:23:47;17.58;;;15.98;;
11037;SDS011;5572;49.540;11.932;2023-02-01T02:36:08;17.52;;;15.95;;
11037;SDS011;5572;49.540;11.932;2023-02-01T02:38:41;18.25;;;16.50;;
11037;SDS011;5572;49.540;11.932;2023-02-01T02:41:19;17.70;;;15.98;;
11037;SDS011;5572;49.540;11.932;2023-02-01T02:44:13;16.83;;;15.23;;
11037;SDS011;5572;49.540;11.932;2023-02-01T02:47:06;17.25;;;15.73;;
11037;SDS011;5572;49.540;11.932;2023-02-01T02:49:52;16.35;;;14.75;;
11037;SDS011;5572;49.540;11.932;2023-02-01T02:52:41;18.63;;;16.80;;
11037;SDS011;5572;49.540;11.932;2023-02-01T02:55:30;18.92;;;17.15;;
11037;SDS011;5572;49.540;11.932;2023-02-01T02:58:02;19.80;;;17.90;;
11037;SDS011;5572;49.540;11.932;2023-02-01T03:00:47;18.02;;;16.35;;
11037;SDS011;5572;49.540;11.932;2023-02-01T03:03:36;16.83;;;15.20;;
11037;SDS011;5572;49.540;11.932;2023-02-01T03:06:22;18.20;;;16.30;;
11037;SDS011;5572;49.540;11.932;2023-02-01T03:08:50;18.05;;;16.33;;
11037;SDS011;5572;49.540;11.932;2023-02-01T03:11:19;16.97;;;15.33;;
11037;SDS011;5572;49.540;11.932;2023-02-01T03:13:47;17.77;;;16.05;;
11037;SDS011;5572;49.540;11.932;2023-02-01T03:16:17;18.23;;;16.45;;
11037;SDS011;5572;49.540;11.932;2023-02-01T03:18:52;15.77;;;14.23;;
11037;SDS011;5572;49.540;11.932;2023-02-01T03:21:26;16.25;;;14.70;;
11037;SDS011;5572;49.540;11.932;2023-02-01T03:23:58;17.95;;;16.15;;
11037;SDS011;5572;49.540;11.932;2023-02-01T03:26:29;19.02;;;17.15;;
11037;SDS011;5572;49.540;11.932;2023-02-01T03:28:59;17.00;;;15.33;;
11037;SDS011;5572;49.540;11.932;2023-02-01T03:31:31;18.38;;;16.98;;
11037;SDS011;5572;49.540;11.932;2023-02-01T03:33:58;17.70;;;16.47;;
11037;SDS011;5572;49.540;11.932;2023-02-01T03:36:28;16.98;;;15.40;;
11037;SDS011;5572;49.540;11.932;2023-02-01T03:38:58;15.77;;;14.30;;
11037;SDS011;5572;49.540;11.932;2023-02-01T03:41:33;15.93;;;14.43;;
11037;SDS011;5572;49.540;11.932;2023-02-01T03:44:04;17.23;;;15.63;;
11037;SDS011;5572;49.540;11.932;2023-02-01T03:46:39;16.20;;;14.70;;
11037;SDS011;5572;49.540;11.932;2023-02-01T03:49:09;16.05;;;14.55;;
11037;SDS011;5572;49.540;11.932;2023-02-01T03:51:42;17.75;;;16.02;;
11037;SDS011;5572;49.540;11.932;2023-02-01T03:54:09;15.30;;;13.87;;
11037;SDS011;5572;49.540;11.932;2023-02-01T03:56:39;16.33;;;14.90;;
11037;SDS011;5572;49.540;11.932;2023-02-01T03:59:10;20.15;;;18.08;;
11037;SDS011;5572;49.540;11.932;2023-02-01T04:01:37;16.57;;;15.00;;
11037;SDS011;5572;49.540;11.932;2023-02-01T04:04:03;17.15;;;15.52;;
11037;SDS011;5572;49.540;11.932;2023-02-01T04:06:30;16.92;;;15.32;;
11037;SDS011;5572;49.540;11.932;2023-02-01T04:08:58;19.27;;;17.25;;
11037;SDS011;5572;49.540;11.932;2023-02-01T04:11:25;17.42;;;15.80;;
11037;SDS011;5572;49.540;11.932;2023-02-01T04:13:52;17.45;;;15.98;;
11037;SDS011;5572;49.540;11.932;2023-02-01T04:16:19;15.93;;;14.45;;
11037;SDS011;5572;49.540;11.932;2023-02-01T04:18:45;16.35;;;14.80;;
11037;SDS011;5572;49.540;11.932;2023-02-01T04:21:12;15.93;;;14.50;;
11037;SDS011;5572;49.540;11.932;2023-02-01T04:23:38;16.27;;;14.80;;
11037;SDS011;5572;49.540;11.932;2023-02-01T04:26:06;15.65;;;14.32;;
11037;SDS011;5572;49.540;11.932;2023-02-01T04:28:33;17.13;;;15.43;;
11037;SDS011;5572;49.540;11.932;2023-02-01T04:31:00;17.13;;;15.67;;
11037;SDS011;5572;49.540;11.932;2023-02-01T04:33:27;17.63;;;16.13;;
11037;SDS011;5572;49.540;11.932;2023-02-01T04:35:53;15.68;;;14.25;;
11037;SDS011;5572;49.540;11.932;2023-02-01T04:38:20;14.68;;;13.38;;
11037;SDS011;5572;49.540;11.932;2023-02-01T04:40:47;15.98;;;14.73;;
11037;SDS011;5572;49.540;11.932;2023-02-01T04:43:16;25.38;;;15.82;;
11037;SDS011;5572;49.540;11.932;2023-02-01T04:45:46;15.02;;;13.73;;
11037;SDS011;5572;49.540;11.932;2023-02-01T04:48:14;16.17;;;14.75;;
11037;SDS011;5572;49.540;11.932;2023-02-01T04:50:41;15.35;;;13.82;;
11037;SDS011;5572;49.540;11.932;2023-02-01T04:53:07;15.73;;;14.40;;
11037;SDS011;5572;49.540;11.932;2023-02-01T04:55:34;15.05;;;13.75;;
11037;SDS011;5572;49.540;11.932;2023-02-01T04:58:01;18.95;;;16.25;;
11037;SDS011;5572;49.540;11.932;2023-02-01T05:00:29;21.23;;;19.40;;
11037;SDS011;5572;49.540;11.932;2023-02-01T05:02:56;16.13;;;14.75;;
11037;SDS011;5572;49.540;11.932;2023-02-01T05:05:22;18.13;;;16.55;;
11037;SDS011;5572;49.540;11.932;2023-02-01T05:07:49;19.75;;;17.55;;
11037;SDS011;5572;49.540;11.932;2023-02-01T05:10:19;19.35;;;17.45;;
11037;SDS011;5572;49.540;11.932;2023-02-01T05:12:46;18.92;;;17.00;;
11037;SDS011;5572;49.540;11.932;2023-02-01T05:15:32;17.17;;;15.63;;
11037;SDS011;5572;49.540;11.932;2023-02-01T05:17:59;17.73;;;16.13;;
11037;SDS011;5572;49.540;11.932;2023-02-01T05:20:25;19.60;;;17.80;;
11037;SDS011;5572;49.540;11.932;2023-02-01T05:22:55;22.58;;;17.00;;
11037;SDS011;5572;49.540;11.932;2023-02-01T05:25:22;17.02;;;15.48;;
11037;SDS011;5572;49.540;11.932;2023-02-01T05:27:48;15.70;;;14.32;;
11037;SDS011;5572;49.540;11.932;2023-02-01T05:30:15;18.15;;;16.52;;
11037;SDS011;5572;49.540;11.932;2023-02-01T05:32:43;16.02;;;14.63;;
11037;SDS011;5572;49.540;11.932;2023-02-01T05:35:10;17.20;;;15.65;;
11037;SDS011;5572;49.540;11.932;2023-02-01T05:37:37;18.30;;;16.67;;
11037;SDS011;5572;49.540;11.932;2023-02-01T05:40:04;15.55;;;14.23;;
11037;SDS011;5572;49.540;11.932;2023-02-01T05:42:31;18.10;;;16.52;;
11037;SDS011;5572;49.540;11.932;2023-02-01T05:44:58;16.35;;;14.93;;
11037;SDS011;5572;49.540;11.932;2023-02-01T05:47:25;16.58;;;15.18;;
11037;SDS011;5572;49.540;11.932;2023-02-01T05:49:53;15.55;;;14.18;;
11037;SDS011;5572;49.540;11.932;2023-02-01T05:52:19;17.13;;;15.63;;
11037;SDS011;5572;49.540;11.932;2023-02-01T05:54:46;17.75;;;16.13;;
11037;SDS011;5572;49.540;11.932;2023-02-01T05:57:13;16.02;;;14.63;;
11037;SDS011;5572;49.540;11.932;2023-02-01T05:59:40;16.58;;;15.07;;
11037;SDS011;5572;49.540;11.932;2023-02-01T06:02:09;15.15;;;13.80;;
11037;SDS011;5572;49.540;11.932;2023-02-01T06:04:36;18.70;;;16.45;;
11037;SDS011;5572;49.540;11.932;2023-02-01T06:07:08;16.73;;;15.25;;
11037;SDS011;5572;49.540;11.932;2023-02-01T06:09:36;18.15;;;15.82;;
11037;SDS011;5572;49.540;11.932;2023-02-01T06:12:04;16.70;;;15.18;;
11037;SDS011;5572;49.540;11.932;2023-02-01T06:14:31;17.05;;;15.52;;
11037;SDS011;5572;49.540;11.932;2023-02-01T06:16:58;16.55;;;15.02;;
11037;SDS011;5572;49.540;11.932;2023-02-01T06:19:24;16.10;;;14.60;;
11037;SDS011;5572;49.540;11.932;2023-02-01T06:21:51;15.77;;;14.38;;
11037;SDS011;5572;49.540;11.932;2023-02-01T06:24:19;15.35;;;14.02;;
11037;SDS011;5572;49.540;11.932;2023-02-01T06:26:46;15.63;;;14.23;;
11037;SDS011;5572;49.540;11.932;2023-02-01T06:29:12;15.85;;;14.45;;
11037;SDS011;5572;49.540;11.932;2023-02-01T06:31:39;16.67;;;15.10;;
11037;SDS011;5572;49.540;11.932;2023-02-01T06:34:07;15.90;;;14.38;;
11037;SDS011;5572;49.540;11.932;2023-02-01T06:36:33;16.63;;;15.15;;
11037;SDS011;5572;49.540;11.932;2023-02-01T06:39:00;15.13;;;13.82;;
11037;SDS011;5572;49.540;11.932;2023-02-01T06:41:28;16.35;;;14.85;;
11037;SDS011;5572;49.540;11.932;2023-02-01T06:43:55;17.73;;;16.08;;
11037;SDS011;5572;49.540;11.932;2023-02-01T06:46:22;14.25;;;12.95;;
11037;SDS011;5572;49.540;11.932;2023-02-01T06:48:48;16.40;;;14.90;;
11037;SDS011;5572;49.540;11.932;2023-02-01T06:51:17;15.90;;;14.38;;
11037;SDS011;5572;49.540;11.932;2023-02-01T06:53:46;23.58;;;16.02;;
11037;SDS011;5572;49.540;11.932;2023-02-01T06:56:12;15.38;;;13.90;;
11037;SDS011;5572;49.540;11.932;2023-02-01T06:58:41;17.65;;;15.95;;
11037;SDS011;5572;49.540;11.932;2023-02-01T07:01:08;15.48;;;13.98;;
11037;SDS011;5572;49.540;11.932;2023-02-01T07:03:36;16.40;;;14.85;;
11037;SDS011;5572;49.540;11.932;2023-02-01T07:06:03;16.67;;;14.98;;
11037;SDS011;5572;49.540;11.932;2023-02-01T07:08:31;17.50;;;15.85;;
11037;SDS011;5572;49.540;11.932;2023-02-01T07:11:01;15.32;;;13.82;;
11037;SDS011;5572;49.540;11.932;2023-02-01T07:13:28;17.27;;;15.57;;
11037;SDS011;5572;49.540;11.932;2023-02-01T07:15:58;17.88;;;15.45;;
11037;SDS011;5572;49.540;11.932;2023-02-01T07:18:26;17.17;;;15.35;;
11037;SDS011;5572;49.540;11.932;2023-02-01T07:20:53;17.17;;;15.40;;
11037;SDS011;5572;49.540;11.932;2023-02-01T07:23:20;19.25;;;16.90;;
11037;SDS011;5572;49.540;11.932;2023-02-01T07:25:47;15.63;;;14.05;;
11037;SDS011;5572;49.540;11.932;2023-02-01T07:28:14;15.63;;;14.07;;
11037;SDS011;5572;49.540;11.932;2023-02-01T07:30:40;14.63;;;13.18;;
11037;SDS011;5572;49.540;11.932;2023-02-01T07:33:09;16.38;;;14.77;;
11037;SDS011;5572;49.540;11.932;2023-02-01T07:35:35;15.10;;;13.73;;
11037;SDS011;5572;49.540;11.932;2023-02-01T07:38:02;16.02;;;14.55;;
11037;SDS011;5572;49.540;11.932;2023-02-01T07:40:29;17.75;;;16.10;;
11037;SDS011;5572;49.540;11.932;2023-02-01T07:42:55;15.57;;;14.17;;
11037;SDS011;5572;49.540;11.932;2023-02-01T07:45:25;16.50;;;14.73;;
11037;SDS011;5572;49.540;11.932;2023-02-01T07:47:52;16.47;;;14.90;;
11037;SDS011;5572;49.540;11.932;2023-02-01T07:50:20;16.95;;;15.25;;
11037;SDS011;5572;49.540;11.932;2023-02-01T07:52:47;17.17;;;15.50;;
11037;SDS011;5572;49.540;11.932;2023-02-01T07:55:14;15.05;;;13.70;;
11037;SDS011;5572;49.540;11.932;2023-02-01T07:57:41;17.50;;;15.77;;
11037;SDS011;5572;49.540;11.932;2023-02-01T08:00:08;16.15;;;14.60;;
11037;SDS011;5572;49.540;11.932;2023-02-01T08:02:53;16.67;;;15.07;;
11037;SDS011;5572;49.540;11.932;2023-02-01T08:05:21;16.40;;;14.80;;
11037;SDS011;5572;49.540;11.932;2023-02-01T08:07:48;17.23;;;15.43;;
11037;SDS011;5572;49.540;11.932;2023-02-01T08:10:15;20.63;;;16.23;;
11037;SDS011;5572;49.540;11.932;2023-02-01T08:12:42;17.77;;;15.98;;
11037;SDS011;5572;49.540;11.932;2023-02-01T08:15:12;19.05;;;14.55;;
11037;SDS011;5572;49.540;11.932;2023-02-01T08:17:39;17.73;;;16.00;;
11037;SDS011;5572;49.540;11.932;2023-02-01T08:20:06;17.67;;;15.88;;
11037;SDS011;5572;49.540;11.932;2023-02-01T08:22:36;19.25;;;17.05;;
11037;SDS011;5572;49.540;11.932;2023-02-01T08:25:02;18.10;;;16.30;;
11037;SDS011;5572;49.540;11.932;2023-02-01T08:27:30;18.98;;;16.63;;
11037;SDS011;5572;49.540;11.932;2023-02-01T08:29:58;17.55;;;15.88;;
11037;SDS011;5572;49.540;11.932;2023-02-01T08:32:25;16.35;;;14.77;;
11037;SDS011;5572;49.540;11.932;2023-02-01T08:34:52;19.50;;;17.13;;
11037;SDS011;5572;49.540;11.932;2023-02-01T08:37:19;17.88;;;16.08;;
11037;SDS011;5572;49.540;11.932;2023-02-01T08:39:48;16.37;;;14.77;;
11037;SDS011;5572;49.540;11.932;2023-02-01T14:44:24;22.57;;;16.23;;
11037;SDS011;5572;49.540;11.932;2023-02-01T14:49:56;17.23;;;15.47;;
11037;SDS011;5572;49.540;11.932;2023-02-01T14:52:29;19.83;;;16.93;;
11037;SDS011;5572;49.540;11.932;2023-02-01T14:55:01;17.20;;;15.43;;
11037;SDS011;5572;49.540;11.932;2023-02-01T14:57:33;18.40;;;15.90;;
11037;SDS011;5572;49.540;11.932;2023-02-01T15:00:11;19.90;;;16.67;;
11037;SDS011;5572;49.540;11.932;2023-02-01T15:02:44;18.87;;;16.43;;
11037;SDS011;5572;49.540;11.932;2023-02-01T15:05:22;20.33;;;16.83;;
11037;SDS011;5572;49.540;11.932;2023-02-01T15:07:52;27.73;;;18.53;;
11037;SDS011;5572;49.540;11.932;2023-02-01T15:10:19;20.17;;;16.47;;
11037;SDS011;5572;49.540;11.932;2023-02-01T15:12:47;18.30;;;15.13;;
11037;SDS011;5572;49.540;11.932;2023-02-01T15:15:17;27.03;;;18.70;;
11037;SDS011;5572;49.540;11.932;2023-02-01T15:17:49;24.43;;;17.50;;
11037;SDS011;5572;49.540;11.932;2023-02-01T15:20:18;22.07;;;16.63;;
11037;SDS011;5572;49.540;11.932;2023-02-01T15:22:56;25.87;;;16.63;;
11037;SDS011;5572;49.540;11.932;2023-02-01T15:25:26;22.80;;;16.83;;
11037;SDS011;5572;49.540;11.932;2023-02-01T15:27:53;22.52;;;16.33;;
11037;SDS011;5572;49.540;11.932;2023-02-01T15:30:23;25.67;;;15.90;;
11037;SDS011;5572;49.540;11.932;2023-02-01T15:32:51;25.07;;;18.00;;
11037;SDS011;5572;49.540;11.932;2023-02-01T15:35:37;23.20;;;16.75;;
11037;SDS011;5572;49.540;11.932;2023-02-01T15:40:59;24.63;;;17.03;;
11037;SDS011;5572;49.540;11.932;2023-02-01T15:43:28;22.70;;;16.30;;
11037;SDS011;5572;49.540;11.932;2023-02-01T15:45:59;22.00;;;15.73;;
11037;SDS011;5572;49.540;11.932;2023-02-01T15:48:28;22.77;;;17.00;;
11037;SDS011;5572;49.540;11.932;2023-02-01T15:50:58;23.83;;;17.60;;
11037;SDS011;5572;49.540;11.932;2023-02-01T15:53:26;24.23;;;21.80;;
11037;SDS011;5572;49.540;11.932;2023-02-01T15:55:56;25.33;;;18.33;;
11037;SDS011;5572;49.540;11.932;2023-02-01T15:58:25;23.83;;;17.40;;
11037;SDS011;5572;49.540;11.932;2023-02-01T16:00:54;28.13;;;16.27;;
11037;SDS011;5572;49.540;11.932;2023-02-01T16:03:34;27.73;;;18.37;;
11037;SDS011;5572;49.540;11.932;2023-02-01T16:06:03;27.60;;;18.17;;
11037;SDS011;5572;49.540;11.932;2023-02-01T16:08:32;23.53;;;16.43;;
11037;SDS011;5572;49.540;11.932;2023-02-01T16:11:13;24.47;;;17.07;;
11037;SDS011;5572;49.540;11.932;2023-02-01T16:13:46;28.53;;;17.60;;
11037;SDS011;5572;49.540;11.932;2023-02-01T16:16:13;23.73;;;16.37;;
11037;SDS011;5572;49.540;11.932;2023-02-01T16:18:41;24.97;;;16.67;;
11037;SDS011;5572;49.540;11.932;2023-02-01T16:21:08;30.70;;;18.47;;
11037;SDS011;5572;49.540;11.932;2023-02-01T16:23:34;23.23;;;16.37;;
11037;SDS011;5572;49.540;11.932;2023-02-01T16:26:01;22.97;;;16.97;;
11037;SDS011;5572;49.540;11.932;2023-02-01T16:28:28;25.57;;;18.00;;
11037;SDS011;5572;49.540;11.932;2023-02-01T16:30:54;24.30;;;17.30;;
11037;SDS011;5572;49.540;11.932;2023-02-01T16:33:22;22.20;;;16.20;;
11037;SDS011;5572;49.540;11.932;2023-02-01T16:35:51;25.97;;;18.03;;
11037;SDS011;5572;49.540;11.932;2023-02-01T16:38:22;29.03;;;20.10;;
11037;SDS011;5572;49.540;11.932;2023-02-01T16:40:49;24.20;;;17.43;;
11037;SDS011;5572;49.540;11.932;2023-02-01T16:43:16;30.00;;;18.30;;
11037;SDS011;5572;49.540;11.932;2023-02-01T16:45:45;22.13;;;15.50;;
11037;SDS011;5572;49.540;11.932;2023-02-01T16:48:16;38.27;;;19.63;;
11037;SDS011;5572;49.540;11.932;2023-02-01T16:50:46;24.33;;;16.83;;
11037;SDS011;5572;49.540;11.932;2023-02-01T16:53:17;27.73;;;18.13;;
11037;SDS011;5572;49.540;11.932;2023-02-01T16:55:45;23.47;;;16.77;;
11037;SDS011;5572;49.540;11.932;2023-02-01T16:58:13;29.97;;;20.00;;
11037;SDS011;5572;49.540;11.932;2023-02-01T17:00:40;35.33;;;26.87;;
11037;SDS011;5572;49.540;11.932;2023-02-01T17:03:09;31.50;;;19.93;;
11037;SDS011;5572;49.540;11.932;2023-02-01T17:05:36;27.50;;;17.57;;
11037;SDS011;5572;49.540;11.932;2023-02-01T17:08:03;34.73;;;21.17;;
11037;SDS011;5572;49.540;11.932;2023-02-01T17:10:34;26.10;;;19.43;;
11037;SDS011;5572;49.540;11.932;2023-02-01T17:13:00;29.37;;;19.27;;
11037;SDS011;5572;49.540;11.932;2023-02-01T17:15:28;24.00;;;16.83;;
11037;SDS011;5572;49.540;11.932;2023-02-01T17:17:59;30.87;;;15.83;;
11037;SDS011;5572;49.540;11.932;2023-02-01T17:20:27;27.07;;;17.33;;
11037;SDS011;5572;49.540;11.932;2023-02-01T17:22:57;25.63;;;17.00;;
11037;SDS011;5572;49.540;11.932;2023-02-01T17:25:24;22.83;;;15.80;;
11037;SDS011;5572;49.540;11.932;2023-02-01T17:27:52;25.63;;;18.63;;
11037;SDS011;5572;49.540;11.932;2023-02-01T17:30:19;28.90;;;18.53;;
11037;SDS011;5572;49.540;11.932;2023-02-01T17:32:46;23.67;;;17.27;;
11037;SDS011;5572;49.540;11.932;2023-02-01T17:37:43;21.30;;;18.43;;
11037;SDS011;5572;49.540;11.932;2023-02-01T17:40:10;23.13;;;18.47;;
11037;SDS011;5572;49.540;11.932;2023-02-01T17:42:38;21.63;;;17.07;;
11037;SDS011;5572;49.540;11.932;2023-02-01T17:45:13;19.73;;;16.63;;
11037;SDS011;5572;49.540;11.932;2023-02-01T17:47:50;22.00;;;18.60;;
11037;SDS011;5572;49.540;11.932;2023-02-01T17:50:17;24.77;;;19.17;;
11037;SDS011;5572;49.540;11.932;2023-02-01T17:52:44;38.70;;;17.50;;
11037;SDS011;5572;49.540;11.932;2023-02-01T17:55:15;19.30;;;17.25;;
11037;SDS011;5572;49.540;11.932;2023-02-01T17:57:43;19.73;;;15.90;;
11037;SDS011;5572;49.540;11.932;2023-02-01T18:00:10;19.20;;;15.10;;
11037;SDS011;5572;49.540;11.932;2023-02-01T18:02:39;21.03;;;17.70;;
11037;SDS011;5572;49.540;11.932;2023-02-01T18:05:13;18.67;;;16.50;;
11037;SDS011;5572;49.540;11.932;2023-02-01T18:07:43;21.70;;;17.50;;
11037;SDS011;5572;49.540;11.932;2023-02-01T18:10:10;31.23;;;17.57;;
11037;SDS011;5572;49.540;11.932;2023-02-01T18:12:37;20.50;;;16.20;;
11037;SDS011;5572;49.540;11.932;2023-02-01T18:15:19;19.63;;;17.30;;
11037;SDS011;5572;49.540;11.932;2023-02-01T18:17:47;21.63;;;18.60;;
11037;SDS011;5572;49.540;11.932;2023-02-01T18:20:14;20.33;;;18.23;;
11037;SDS011;5572;49.540;11.932;2023-02-01T18:22:45;18.60;;;16.43;;
11037;SDS011;5572;49.540;11.932;2023-02-01T18:25:17;19.70;;;16.33;;
11037;SDS011;5572;49.540;11.932;2023-02-01T18:27:46;18.70;;;16.47;;
11037;SDS011;5572;49.540;11.932;2023-02-01T18:30:13;21.17;;;16.53;;
11037;SDS011;5572;49.540;11.932;2023-02-01T18:32:42;19.53;;;17.37;;
11037;SDS011;5572;49.540;11.932;2023-02-01T18:35:15;19.23;;;16.20;;
11037;SDS011;5572;49.540;11.932;2023-02-01T18:37:43;18.70;;;16.47;;
11037;SDS011;5572;49.540;11.932;2023-02-01T18:40:12;17.93;;;15.97;;
11037;SDS011;5572;49.540;11.932;2023-02-01T18:42:43;20.87;;;18.17;;
11037;SDS011;5572;49.540;11.932;2023-02-01T18:45:19;18.53;;;16.30;;
11037;SDS011;5572;49.540;11.932;2023-02-01T18:47:56;18.10;;;15.67;;
11037;SDS011;5572;49.540;11.932;2023-02-01T18:50:25;17.60;;;15.43;;
11037;SDS011;5572;49.540;11.932;2023-02-01T18:52:54;18.53;;;16.60;;
11037;SDS011;5572;49.540;11.932;2023-02-01T18:55:26;23.00;;;18.70;;
11037;SDS011;5572;49.540;11.932;2023-02-01T18:57:53;21.83;;;18.03;;
11037;SDS011;5572;49.540;11.932;2023-02-01T19:00:21;20.60;;;16.77;;
11037;SDS011;5572;49.540;11.932;2023-02-01T19:02:48;21.73;;;17.40;;
11037;SDS011;5572;49.540;11.932;2023-02-01T19:05:16;18.03;;;15.93;;
11037;SDS011;5572;49.540;11.932;2023-02-01T19:07:44;20.00;;;16.90;;
11037;SDS011;5572;49.540;11.932;2023-02-01T19:10:12;18.90;;;16.73;;
11037;SDS011;5572;49.540;11.932;2023-02-01T19:12:40;20.13;;;17.17;;
11037;SDS011;5572;49.540;11.932;2023-02-01T19:15:09;19.67;;;17.10;;
11037;SDS011;5572;49.540;11.932;2023-02-01T19:17:39;19.90;;;17.57;;
11037;SDS011;5572;49.540;11.932;2023-02-01T19:20:08;23.17;;;17.87;;
11037;SDS011;5572;49.540;11.932;2023-02-01T19:22:37;22.00;;;19.40;;
11037;SDS011;5572;49.540;11.932;2023-02-01T19:25:04;20.37;;;18.20;;
11037;SDS011;5572;49.540;11.932;2023-02-01T19:27:31;21.53;;;17.83;;
11037;SDS011;5572;49.540;11.932;2023-02-01T19:29:58;30.30;;;18.37;;
11037;SDS011;5572;49.540;11.932;2023-02-01T19:32:25;19.37;;;17.03;;
11037;SDS011;5572;49.540;11.932;2023-02-01T19:34:52;28.10;;;17.33;;
11037;SDS011;5572;49.540;11.932;2023-02-01T19:37:19;21.17;;;18.03;;
11037;SDS011;5572;49.540;11.932;2023-02-01T19:39:47;17.17;;;15.27;;
11037;SDS011;5572;49.540;11.932;2023-02-01T19:42:14;20.00;;;17.67;;
11037;SDS011;5572;49.540;11.932;2023-02-01T19:44:41;19.37;;;17.23;;
11037;SDS011;5572;49.540;11.932;2023-02-01T19:47:08;23.70;;;16.98;;
11037;SDS011;5572;49.540;11.932;2023-02-01T19:49:35;18.37;;;16.43;;
11037;SDS011;5572;49.540;11.932;2023-02-01T19:52:02;19.70;;;16.30;;
11037;SDS011;5572;49.540;11.932;2023-02-01T19:54:29;17.97;;;16.07;;
11037;SDS011;5572;49.540;11.932;2023-02-01T19:56:57;22.97;;;16.67;;
11037;SDS011;5572;49.540;11.932;2023-02-01T19:59:24;18.83;;;16.13;;
11037;SDS011;5572;49.540;11.932;2023-02-01T20:01:50;18.20;;;16.13;;
11037;SDS011;5572;49.540;11.932;2023-02-01T20:04:17;18.67;;;16.70;;
11037;SDS011;5572;49.540;11.932;2023-02-01T20:06:45;18.03;;;15.77;;
11037;SDS011;5572;49.540;11.932;2023-02-01T20:09:18;19.00;;;16.80;;
11037;SDS011;5572;49.540;11.932;2023-02-01T20:11:46;17.83;;;15.50;;
11037;SDS011;5572;49.540;11.932;2023-02-01T20:14:14;17.40;;;15.30;;
11037;SDS011;5572;49.540;11.932;2023-02-01T20:16:42;18.23;;;16.00;;
11037;SDS011;5572;49.540;11.932;2023-02-01T20:19:09;19.67;;;17.27;;
11037;SDS011;5572;49.540;11.932;2023-02-01T20:21:36;18.00;;;16.03;;
11037;SDS011;5572;49.540;11.932;2023-02-01T20:24:03;18.00;;;15.43;;
11037;SDS011;5572;49.540;11.932;2023-02-01T20:26:30;17.70;;;15.63;;
11037;SDS011;5572;49.540;11.932;2023-02-01T20:28:58;18.03;;;15.80;;
11037;SDS011;5572;49.540;11.932;2023-02-01T20:31:27;21.50;;;17.17;;
11037;SDS011;5572;49.540;11.932;2023-02-01T20:33:54;18.73;;;16.77;;
11037;SDS011;5572;49.540;11.932;2023-02-01T20:36:21;19.27;;;17.13;;
11037;SDS011;5572;49.540;11.932;2023-02-01T20:38:49;22.63;;;18.07;;
11037;SDS011;5572;49.540;11.932;2023-02-01T20:41:16;22.63;;;17.97;;
